sensor_id;sensor_type;location;lat;lon;timestamp;pressure;altitude;pressure_sealevel;temperature;humidity
16595;BME280;8410;52.532;13.336;2023-04-24T00:01:17;99855.88;;;16.38;73.87
16595;BME280;8410;52.532;13.336;2023-04-24T00:03:45;99851.22;;;16.17;75.03
16595;BME280;8410;52.532;13.336;2023-04-24T00:06:13;99854.47;;;16.25;74.48
16595;BME280;8410;52.532;13.336;2023-04-24T00:08:43;99854.34;;;15.95;75.81
16595;BME280;8410;52.532;13.336;2023-04-24T00:11:11;99844.88;;;16.28;74.74
16595;BME280;8410;52.532;13.336;2023-04-24T00:13:39;99847.88;;;16.12;74.74
16595;BME280;8410;52.532;13.336;2023-04-24T00:16:06;99840.69;;;16.23;74.05
16595;BME280;8410;52.532;13.336;2023-04-24T00:18:34;99836.53;;;15.80;76.75
16595;BME280;8410;52.532;13.336;2023-04-24T00:21:01;99838.09;;;15.87;76.79
16595;BME280;8410;52.532;13.336;2023-04-24T00:23:29;99830.53;;;16.14;75.39
16595;BME280;8410;52.532;13.336;2023-04-24T00:25:56;99824.38;;;15.82;75.72
16595;BME280;8410;52.532;13.336;2023-04-24T00:28:25;99818.31;;;15.83;76.67
16595;BME280;8410;52.532;13.336;2023-04-24T00:30:52;99822.22;;;15.99;75.94
16595;BME280;8410;52.532;13.336;2023-04-24T00:33:20;99816.88;;;16.05;75.37
16595;BME280;8410;52.532;13.336;2023-04-24T00:35:47;99807.66;;;15.56;77.09
16595;BME280;8410;52.532;13.336;2023-04-24T00:38:15;99810.44;;;15.47;78.78
16595;BME280;8410;52.532;13.336;2023-04-24T00:40:42;99807.44;;;15.65;77.63
16595;BME280;8410;52.532;13.336;2023-04-24T00:43:10;99801.94;;;15.40;78.78
16595;BME280;8410;52.532;13.336;2023-04-24T00:45:39;99804.00;;;15.63;77.52
16595;BME280;8410;52.532;13.336;2023-04-24T00:48:07;99796.53;;;15.51;78.47
16595;BME280;8410;52.532;13.336;2023-04-24T00:50:35;99796.44;;;15.93;77.08
16595;BME280;8410;52.532;13.336;2023-04-24T00:53:03;99789.75;;;15.83;77.15
16595;BME280;8410;52.532;13.336;2023-04-24T00:55:30;99782.38;;;16.00;76.54
16595;BME280;8410;52.532;13.336;2023-04-24T00:57:59;99787.50;;;16.03;76.49
16595;BME280;8410;52.532;13.336;2023-04-24T01:00:26;99773.28;;;15.84;77.39
16595;BME280;8410;52.532;13.336;2023-04-24T01:02:55;99770.84;;;15.78;77.53
16595;BME280;8410;52.532;13.336;2023-04-24T01:05:25;99775.31;;;15.71;77.85
16595;BME280;8410;52.532;13.336;2023-04-24T01:07:53;99787.16;;;15.83;77.95
16595;BME280;8410;52.532;13.336;2023-04-24T01:10:21;99787.38;;;16.08;76.33
16595;BME280;8410;52.532;13.336;2023-04-24T01:12:49;99794.53;;;16.00;76.35
16595;BME280;8410;52.532;13.336;2023-04-24T01:15:17;99792.59;;;16.08;76.79
16595;BME280;8410;52.532;13.336;2023-04-24T01:17:44;99786.84;;;15.95;76.67
16595;BME280;8410;52.532;13.336;2023-04-24T01:20:14;99792.44;;;15.78;77.69
16595;BME280;8410;52.532;13.336;2023-04-24T01:22:43;99787.00;;;15.50;78.93
16595;BME280;8410;52.532;13.336;2023-04-24T01:25:10;99785.47;;;15.43;80.00
16595;BME280;8410;52.532;13.336;2023-04-24T01:27:38;99787.38;;;15.74;78.47
16595;BME280;8410;52.532;13.336;2023-04-24T01:30:07;99776.78;;;15.44;77.99
16595;BME280;8410;52.532;13.336;2023-04-24T01:32:35;99787.56;;;15.64;78.86
16595;BME280;8410;52.532;13.336;2023-04-24T01:35:04;99784.03;;;16.04;77.42
16595;BME280;8410;52.532;13.336;2023-04-24T01:37:32;99776.09;;;16.09;77.10
16595;BME280;8410;52.532;13.336;2023-04-24T01:40:00;99775.97;;;15.81;77.70
16595;BME280;8410;52.532;13.336;2023-04-24T01:42:29;99768.22;;;16.14;77.05
16595;BME280;8410;52.532;13.336;2023-04-24T01:44:57;99770.84;;;16.12;77.78
16595;BME280;8410;52.532;13.336;2023-04-24T01:47:25;99774.41;;;16.08;78.37
16595;BME280;8410;52.532;13.336;2023-04-24T01:49:53;99772.16;;;16.28;76.95
16595;BME280;8410;52.532;13.336;2023-04-24T01:52:20;99757.97;;;15.73;78.75
16595;BME280;8410;52.532;13.336;2023-04-24T01:54:48;99756.13;;;16.13;78.34
16595;BME280;8410;52.532;13.336;2023-04-24T01:57:16;99755.03;;;16.21;77.51
16595;BME280;8410;52.532;13.336;2023-04-24T01:59:44;99741.28;;;16.18;77.70
16595;BME280;8410;52.532;13.336;2023-04-24T02:02:11;99753.28;;;16.22;77.18
16595;BME280;8410;52.532;13.336;2023-04-24T02:04:39;99760.97;;;16.25;77.36
16595;BME280;8410;52.532;13.336;2023-04-24T02:07:06;99754.75;;;15.99;77.42
16595;BME280;8410;52.532;13.336;2023-04-24T02:09:34;99753.84;;;15.27;80.29
16595;BME280;8410;52.532;13.336;2023-04-24T02:12:01;99757.56;;;15.90;78.53
16595;BME280;8410;52.532;13.336;2023-04-24T02:14:30;99748.50;;;15.35;79.69
16595;BME280;8410;52.532;13.336;2023-04-24T02:16:57;99750.06;;;15.03;83.30
16595;BME280;8410;52.532;13.336;2023-04-24T02:19:25;99746.66;;;15.76;80.39
16595;BME280;8410;52.532;13.336;2023-04-24T02:21:52;99732.97;;;15.71;78.80
16595;BME280;8410;52.532;13.336;2023-04-24T02:24:20;99737.13;;;15.76;79.34
16595;BME280;8410;52.532;13.336;2023-04-24T02:26:47;99735.13;;;15.87;78.39
16595;BME280;8410;52.532;13.336;2023-04-24T02:29:14;99740.13;;;15.22;81.72
16595;BME280;8410;52.532;13.336;2023-04-24T02:31:43;99738.16;;;15.71;79.54
16595;BME280;8410;52.532;13.336;2023-04-24T02:34:11;99745.22;;;15.62;79.49
16595;BME280;8410;52.532;13.336;2023-04-24T02:36:38;99742.63;;;15.62;79.24
16595;BME280;8410;52.532;13.336;2023-04-24T02:39:05;99735.13;;;15.13;82.37
16595;BME280;8410;52.532;13.336;2023-04-24T02:41:33;99737.03;;;15.05;82.83
16595;BME280;8410;52.532;13.336;2023-04-24T02:44:00;99742.06;;;15.51;80.66
16595;BME280;8410;52.532;13.336;2023-04-24T02:46:28;99733.38;;;15.52;81.07
16595;BME280;8410;52.532;13.336;2023-04-24T02:48:57;99743.34;;;14.93;82.98
16595;BME280;8410;52.532;13.336;2023-04-24T02:51:24;99735.59;;;15.68;81.07
16595;BME280;8410;52.532;13.336;2023-04-24T02:53:53;99733.44;;;15.86;79.35
16595;BME280;8410;52.532;13.336;2023-04-24T02:56:20;99740.19;;;15.92;79.52
16595;BME280;8410;52.532;13.336;2023-04-24T02:58:48;99728.75;;;15.63;79.30
16595;BME280;8410;52.532;13.336;2023-04-24T03:01:15;99729.69;;;15.25;80.05
16595;BME280;8410;52.532;13.336;2023-04-24T03:03:44;99731.63;;;14.31;85.45
16595;BME280;8410;52.532;13.336;2023-04-24T03:06:13;99730.63;;;14.39;84.64
16595;BME280;8410;52.532;13.336;2023-04-24T03:08:40;99732.00;;;14.58;86.39
16595;BME280;8410;52.532;13.336;2023-04-24T03:11:08;99734.94;;;15.22;82.26
16595;BME280;8410;52.532;13.336;2023-04-24T03:13:35;99740.63;;;15.38;82.74
16595;BME280;8410;52.532;13.336;2023-04-24T03:16:03;99748.22;;;15.83;80.63
16595;BME280;8410;52.532;13.336;2023-04-24T03:18:31;99748.00;;;15.92;79.85
16595;BME280;8410;52.532;13.336;2023-04-24T03:20:58;99745.94;;;16.05;79.24
16595;BME280;8410;52.532;13.336;2023-04-24T03:23:27;99748.84;;;15.93;79.13
16595;BME280;8410;52.532;13.336;2023-04-24T03:25:54;99747.81;;;15.64;79.76
16595;BME280;8410;52.532;13.336;2023-04-24T03:28:22;99748.00;;;15.92;79.25
16595;BME280;8410;52.532;13.336;2023-04-24T03:30:49;99742.13;;;15.48;80.70
16595;BME280;8410;52.532;13.336;2023-04-24T03:33:17;99742.31;;;15.76;79.77
16595;BME280;8410;52.532;13.336;2023-04-24T03:35:44;99736.72;;;15.57;80.46
16595;BME280;8410;52.532;13.336;2023-04-24T03:38:11;99734.72;;;15.69;79.68
16595;BME280;8410;52.532;13.336;2023-04-24T03:40:40;99743.31;;;15.72;80.06
16595;BME280;8410;52.532;13.336;2023-04-24T03:43:08;99750.09;;;15.78;80.17
16595;BME280;8410;52.532;13.336;2023-04-24T03:45:35;99745.66;;;15.81;79.69
16595;BME280;8410;52.532;13.336;2023-04-24T03:48:02;99749.75;;;15.90;79.03
16595;BME280;8410;52.532;13.336;2023-04-24T03:50:30;99754.94;;;15.15;82.35
16595;BME280;8410;52.532;13.336;2023-04-24T03:52:57;99750.84;;;15.44;82.71
16595;BME280;8410;52.532;13.336;2023-04-24T03:55:25;99748.84;;;15.55;82.33
16595;BME280;8410;52.532;13.336;2023-04-24T03:57:53;99741.94;;;15.18;83.68
16595;BME280;8410;52.532;13.336;2023-04-24T04:00:21;99738.44;;;15.58;80.23
16595;BME280;8410;52.532;13.336;2023-04-24T04:02:48;99741.75;;;15.63;80.55
16595;BME280;8410;52.532;13.336;2023-04-24T04:05:16;99742.41;;;14.97;82.86
16595;BME280;8410;52.532;13.336;2023-04-24T04:07:44;99735.84;;;15.21;84.35
16595;BME280;8410;52.532;13.336;2023-04-24T04:10:11;99737.13;;;15.39;81.75
16595;BME280;8410;52.532;13.336;2023-04-24T04:12:39;99733.94;;;15.63;81.34
16595;BME280;8410;52.532;13.336;2023-04-24T04:15:08;99723.34;;;15.37;81.92
16595;BME280;8410;52.532;13.336;2023-04-24T04:17:36;99724.34;;;15.69;81.51
16595;BME280;8410;52.532;13.336;2023-04-24T04:20:05;99736.59;;;14.86;83.32
16595;BME280;8410;52.532;13.336;2023-04-24T04:22:35;99728.00;;;15.22;83.60
16595;BME280;8410;52.532;13.336;2023-04-24T04:25:03;99729.75;;;15.24;82.10
16595;BME280;8410;52.532;13.336;2023-04-24T04:27:31;99730.19;;;15.41;81.94
16595;BME280;8410;52.532;13.336;2023-04-24T04:29:59;99732.59;;;15.49;81.26
16595;BME280;8410;52.532;13.336;2023-04-24T04:32:31;99735.28;;;15.81;80.36
16595;BME280;8410;52.532;13.336;2023-04-24T04:34:59;99731.03;;;15.79;78.79
16595;BME280;8410;52.532;13.336;2023-04-24T04:37:29;99731.03;;;15.79;80.64
16595;BME280;8410;52.532;13.336;2023-04-24T04:39:57;99741.97;;;15.90;79.68
16595;BME280;8410;52.532;13.336;2023-04-24T04:42:25;99744.66;;;15.87;80.72
16595;BME280;8410;52.532;13.336;2023-04-24T04:44:53;99740.97;;;14.84;85.45
16595;BME280;8410;52.532;13.336;2023-04-24T04:47:21;99746.59;;;15.79;81.32
16595;BME280;8410;52.532;13.336;2023-04-24T04:49:50;99745.81;;;16.09;79.49
16595;BME280;8410;52.532;13.336;2023-04-24T04:52:18;99756.69;;;16.24;79.24
16595;BME280;8410;52.532;13.336;2023-04-24T04:54:45;99758.28;;;15.95;79.82
16595;BME280;8410;52.532;13.336;2023-04-24T04:57:13;99758.63;;;15.83;81.16
16595;BME280;8410;52.532;13.336;2023-04-24T04:59:40;99758.25;;;16.31;78.72
16595;BME280;8410;52.532;13.336;2023-04-24T05:02:08;99759.09;;;15.99;78.23
16595;BME280;8410;52.532;13.336;2023-04-24T05:04:36;99764.66;;;16.18;78.75
16595;BME280;8410;52.532;13.336;2023-04-24T05:07:05;99767.25;;;16.18;77.81
16595;BME280;8410;52.532;13.336;2023-04-24T05:09:33;99760.16;;;16.56;77.38
16595;BME280;8410;52.532;13.336;2023-04-24T05:12:00;99761.88;;;15.91;79.81
16595;BME280;8410;52.532;13.336;2023-04-24T05:14:28;99756.13;;;16.75;77.31
16595;BME280;8410;52.532;13.336;2023-04-24T05:16:55;99754.88;;;17.19;75.92
16595;BME280;8410;52.532;13.336;2023-04-24T05:19:23;99757.06;;;17.04;75.01
16595;BME280;8410;52.532;13.336;2023-04-24T05:21:50;99747.81;;;16.64;77.51
16595;BME280;8410;52.532;13.336;2023-04-24T05:24:19;99756.97;;;17.07;76.03
16595;BME280;8410;52.532;13.336;2023-04-24T05:26:46;99760.25;;;17.96;72.66
16595;BME280;8410;52.532;13.336;2023-04-24T05:29:14;99764.25;;;17.80;71.91
16595;BME280;8410;52.532;13.336;2023-04-24T05:31:41;99756.97;;;18.16;71.56
16595;BME280;8410;52.532;13.336;2023-04-24T05:34:09;99757.16;;;18.35;70.31
16595;BME280;8410;52.532;13.336;2023-04-24T05:36:36;99767.78;;;18.04;71.67
16595;BME280;8410;52.532;13.336;2023-04-24T05:39:03;99752.47;;;18.93;69.11
16595;BME280;8410;52.532;13.336;2023-04-24T05:41:35;99757.22;;;20.14;70.01
16595;BME280;8410;52.532;13.336;2023-04-24T05:44:02;99750.16;;;20.76;66.70
16595;BME280;8410;52.532;13.336;2023-04-24T05:46:29;99755.03;;;20.44;63.98
16595;BME280;8410;52.532;13.336;2023-04-24T05:48:57;99751.44;;;20.67;65.20
16595;BME280;8410;52.532;13.336;2023-04-24T05:51:24;99748.03;;;20.84;65.11
16595;BME280;8410;52.532;13.336;2023-04-24T05:53:52;99742.59;;;21.63;62.99
16595;BME280;8410;52.532;13.336;2023-04-24T05:56:20;99751.34;;;21.45;62.53
16595;BME280;8410;52.532;13.336;2023-04-24T05:58:49;99750.78;;;21.74;61.78
16595;BME280;8410;52.532;13.336;2023-04-24T06:01:16;99751.88;;;22.22;61.43
16595;BME280;8410;52.532;13.336;2023-04-24T06:03:44;99755.53;;;21.84;61.91
16595;BME280;8410;52.532;13.336;2023-04-24T06:06:12;99759.41;;;21.94;60.70
16595;BME280;8410;52.532;13.336;2023-04-24T06:08:40;99756.81;;;21.21;62.73
16595;BME280;8410;52.532;13.336;2023-04-24T06:11:08;99755.28;;;22.24;60.15
16595;BME280;8410;52.532;13.336;2023-04-24T06:13:36;99755.78;;;23.14;56.83
16595;BME280;8410;52.532;13.336;2023-04-24T06:16:05;99767.28;;;21.40;58.76
16595;BME280;8410;52.532;13.336;2023-04-24T06:18:32;99780.09;;;19.67;62.85
16595;BME280;8410;52.532;13.336;2023-04-24T06:21:00;99779.38;;;20.05;63.38
16595;BME280;8410;52.532;13.336;2023-04-24T06:23:27;99788.69;;;20.52;60.83
16595;BME280;8410;52.532;13.336;2023-04-24T06:25:55;99779.47;;;20.23;61.77
16595;BME280;8410;52.532;13.336;2023-04-24T06:28:23;99789.03;;;20.03;62.66
16595;BME280;8410;52.532;13.336;2023-04-24T06:30:50;99780.72;;;19.28;65.41
16595;BME280;8410;52.532;13.336;2023-04-24T06:33:19;99780.44;;;19.57;64.40
16595;BME280;8410;52.532;13.336;2023-04-24T06:35:49;99791.19;;;19.72;63.67
16595;BME280;8410;52.532;13.336;2023-04-24T06:38:16;99782.63;;;19.01;65.24
16595;BME280;8410;52.532;13.336;2023-04-24T06:40:44;99777.69;;;19.38;63.80
16595;BME280;8410;52.532;13.336;2023-04-24T06:43:11;99784.84;;;18.88;66.24
16595;BME280;8410;52.532;13.336;2023-04-24T06:45:39;99792.16;;;18.78;65.78
16595;BME280;8410;52.532;13.336;2023-04-24T06:48:06;99792.88;;;19.05;65.07
16595;BME280;8410;52.532;13.336;2023-04-24T06:50:35;99787.22;;;18.94;65.16
16595;BME280;8410;52.532;13.336;2023-04-24T06:53:03;99794.81;;;18.77;65.77
16595;BME280;8410;52.532;13.336;2023-04-24T06:55:30;99771.13;;;19.50;63.86
16595;BME280;8410;52.532;13.336;2023-04-24T06:57:57;99781.84;;;18.50;64.40
16595;BME280;8410;52.532;13.336;2023-04-24T07:00:25;99774.03;;;18.73;64.85
16595;BME280;8410;52.532;13.336;2023-04-24T07:02:52;99784.00;;;19.33;63.78
16595;BME280;8410;52.532;13.336;2023-04-24T07:05:20;99783.50;;;19.45;62.97
16595;BME280;8410;52.532;13.336;2023-04-24T07:07:49;99781.75;;;19.00;62.21
16595;BME280;8410;52.532;13.336;2023-04-24T07:10:17;99776.28;;;19.30;60.95
16595;BME280;8410;52.532;13.336;2023-04-24T07:12:46;99775.31;;;18.87;61.56
16595;BME280;8410;52.532;13.336;2023-04-24T07:15:13;99787.69;;;17.80;63.79
16595;BME280;8410;52.532;13.336;2023-04-24T07:17:41;99776.06;;;18.42;62.78
16595;BME280;8410;52.532;13.336;2023-04-24T07:20:10;99775.13;;;19.15;61.02
16595;BME280;8410;52.532;13.336;2023-04-24T07:22:38;99781.19;;;19.15;61.26
16595;BME280;8410;52.532;13.336;2023-04-24T07:25:07;99781.44;;;19.31;60.66
16595;BME280;8410;52.532;13.336;2023-04-24T07:27:35;99779.19;;;19.88;58.81
16595;BME280;8410;52.532;13.336;2023-04-24T07:30:03;99777.00;;;20.20;57.68
16595;BME280;8410;52.532;13.336;2023-04-24T07:32:31;99772.44;;;20.45;57.16
16595;BME280;8410;52.532;13.336;2023-04-24T07:35:02;99775.31;;;20.19;57.12
16595;BME280;8410;52.532;13.336;2023-04-24T07:37:29;99779.00;;;20.56;56.17
16595;BME280;8410;52.532;13.336;2023-04-24T07:39:57;99778.78;;;20.19;56.93
16595;BME280;8410;52.532;13.336;2023-04-24T07:42:25;99769.38;;;20.56;55.73
16595;BME280;8410;52.532;13.336;2023-04-24T07:44:53;99772.06;;;20.14;56.10
16595;BME280;8410;52.532;13.336;2023-04-24T07:47:20;99772.13;;;19.70;57.56
16595;BME280;8410;52.532;13.336;2023-04-24T07:49:48;99764.59;;;20.04;56.22
16595;BME280;8410;52.532;13.336;2023-04-24T07:52:15;99771.22;;;19.91;56.75
16595;BME280;8410;52.532;13.336;2023-04-24T07:54:42;99776.72;;;19.85;56.60
16595;BME280;8410;52.532;13.336;2023-04-24T07:57:10;99777.97;;;19.76;57.35
16595;BME280;8410;52.532;13.336;2023-04-24T07:59:39;99775.97;;;19.37;58.46
16595;BME280;8410;52.532;13.336;2023-04-24T08:02:07;99782.53;;;19.48;58.51
16595;BME280;8410;52.532;13.336;2023-04-24T08:04:35;99774.63;;;19.93;57.70
16595;BME280;8410;52.532;13.336;2023-04-24T08:07:03;99776.22;;;19.97;57.37
16595;BME280;8410;52.532;13.336;2023-04-24T08:09:31;99770.66;;;19.85;57.50
16595;BME280;8410;52.532;13.336;2023-04-24T08:11:58;99768.50;;;20.15;55.69
16595;BME280;8410;52.532;13.336;2023-04-24T08:14:26;99771.69;;;19.58;56.64
16595;BME280;8410;52.532;13.336;2023-04-24T08:16:55;99768.00;;;20.27;55.33
16595;BME280;8410;52.532;13.336;2023-04-24T08:19:23;99776.09;;;19.12;55.11
16595;BME280;8410;52.532;13.336;2023-04-24T08:21:51;99788.81;;;18.73;56.91
16595;BME280;8410;52.532;13.336;2023-04-24T08:24:19;99787.88;;;19.23;56.82
16595;BME280;8410;52.532;13.336;2023-04-24T08:26:46;99774.66;;;19.49;57.33
16595;BME280;8410;52.532;13.336;2023-04-24T08:29:16;99775.97;;;20.03;56.08
16595;BME280;8410;52.532;13.336;2023-04-24T08:31:43;99771.41;;;20.29;55.88
16595;BME280;8410;52.532;13.336;2023-04-24T08:34:12;99762.25;;;20.19;55.34
16595;BME280;8410;52.532;13.336;2023-04-24T08:36:40;99758.28;;;20.70;54.88
16595;BME280;8410;52.532;13.336;2023-04-24T08:39:12;99761.84;;;20.48;55.24
16595;BME280;8410;52.532;13.336;2023-04-24T08:41:41;99757.09;;;20.77;54.50
16595;BME280;8410;52.532;13.336;2023-04-24T08:44:09;99767.19;;;20.45;55.13
16595;BME280;8410;52.532;13.336;2023-04-24T08:46:37;99764.31;;;20.52;54.42
16595;BME280;8410;52.532;13.336;2023-04-24T08:49:04;99764.72;;;21.01;53.13
16595;BME280;8410;52.532;13.336;2023-04-24T08:51:33;99760.75;;;21.11;53.34
16595;BME280;8410;52.532;13.336;2023-04-24T08:54:01;99759.38;;;21.42;52.90
16595;BME280;8410;52.532;13.336;2023-04-24T08:56:31;99768.53;;;20.56;53.05
16595;BME280;8410;52.532;13.336;2023-04-24T08:59:00;99772.16;;;21.48;52.39
16595;BME280;8410;52.532;13.336;2023-04-24T09:01:31;99774.50;;;20.97;53.31
16595;BME280;8410;52.532;13.336;2023-04-24T09:04:02;99778.38;;;20.08;54.13
16595;BME280;8410;52.532;13.336;2023-04-24T09:06:30;99767.28;;;20.83;53.41
16595;BME280;8410;52.532;13.336;2023-04-24T09:09:01;99781.22;;;19.81;55.72
16595;BME280;8410;52.532;13.336;2023-04-24T09:11:30;99775.47;;;20.95;53.23
16595;BME280;8410;52.532;13.336;2023-04-24T09:13:58;99775.75;;;21.26;52.76
16595;BME280;8410;52.532;13.336;2023-04-24T09:16:26;99774.38;;;20.61;52.76
16595;BME280;8410;52.532;13.336;2023-04-24T09:18:55;99771.00;;;20.59;53.15
16595;BME280;8410;52.532;13.336;2023-04-24T09:21:22;99773.66;;;20.37;54.11
16595;BME280;8410;52.532;13.336;2023-04-24T09:23:57;99770.53;;;21.07;52.74
16595;BME280;8410;52.532;13.336;2023-04-24T09:26:29;99767.22;;;21.23;52.87
16595;BME280;8410;52.532;13.336;2023-04-24T09:28:59;99770.22;;;21.51;53.30
16595;BME280;8410;52.532;13.336;2023-04-24T09:31:28;99770.97;;;21.17;54.35
16595;BME280;8410;52.532;13.336;2023-04-24T09:33:57;99766.06;;;21.28;53.28
16595;BME280;8410;52.532;13.336;2023-04-24T09:36:28;99768.56;;;20.93;54.62
16595;BME280;8410;52.532;13.336;2023-04-24T09:38:59;99782.22;;;20.40;56.80
16595;BME280;8410;52.532;13.336;2023-04-24T09:41:28;99782.91;;;19.82;59.28
16595;BME280;8410;52.532;13.336;2023-04-24T09:43:56;99787.16;;;19.85;58.12
16595;BME280;8410;52.532;13.336;2023-04-24T09:46:29;99773.16;;;20.88;55.79
16595;BME280;8410;52.532;13.336;2023-04-24T09:49:07;99769.56;;;21.10;55.57
16595;BME280;8410;52.532;13.336;2023-04-24T09:51:36;99774.63;;;20.75;56.45
16595;BME280;8410;52.532;13.336;2023-04-24T09:54:13;99768.81;;;20.87;56.22
16595;BME280;8410;52.532;13.336;2023-04-24T09:56:44;99779.53;;;20.42;56.70
16595;BME280;8410;52.532;13.336;2023-04-24T09:59:12;99773.31;;;20.44;56.93
16595;BME280;8410;52.532;13.336;2023-04-24T10:01:40;99767.44;;;20.80;55.81
16595;BME280;8410;52.532;13.336;2023-04-24T10:04:18;99766.28;;;20.86;56.45
16595;BME280;8410;52.532;13.336;2023-04-24T10:06:47;99760.75;;;20.73;55.33
16595;BME280;8410;52.532;13.336;2023-04-24T10:09:15;99755.69;;;21.08;55.23
16595;BME280;8410;52.532;13.336;2023-04-24T10:11:45;99760.19;;;21.23;55.07
16595;BME280;8410;52.532;13.336;2023-04-24T10:14:17;99756.97;;;21.35;54.92
16595;BME280;8410;52.532;13.336;2023-04-24T10:16:45;99756.00;;;21.74;54.35
16595;BME280;8410;52.532;13.336;2023-04-24T10:19:14;99760.06;;;21.45;54.99
16595;BME280;8410;52.532;13.336;2023-04-24T10:21:43;99759.59;;;21.35;54.69
16595;BME280;8410;52.532;13.336;2023-04-24T10:24:13;99758.22;;;21.47;54.62
16595;BME280;8410;52.532;13.336;2023-04-24T10:26:42;99756.22;;;21.52;54.31
16595;BME280;8410;52.532;13.336;2023-04-24T10:29:12;99766.56;;;21.36;54.99
16595;BME280;8410;52.532;13.336;2023-04-24T10:31:42;99767.47;;;21.17;54.90
16595;BME280;8410;52.532;13.336;2023-04-24T10:34:13;99761.75;;;20.89;55.45
16595;BME280;8410;52.532;13.336;2023-04-24T10:36:51;99760.22;;;20.66;56.19
16595;BME280;8410;52.532;13.336;2023-04-24T10:39:23;99770.53;;;20.28;57.53
16595;BME280;8410;52.532;13.336;2023-04-24T10:41:53;99768.16;;;19.15;60.86
16595;BME280;8410;52.532;13.336;2023-04-24T10:44:25;99772.94;;;19.48;60.37
16595;BME280;8410;52.532;13.336;2023-04-24T10:46:54;99773.50;;;20.21;58.22
16595;BME280;8410;52.532;13.336;2023-04-24T10:49:28;99770.41;;;19.47;59.42
16595;BME280;8410;52.532;13.336;2023-04-24T10:52:00;99775.38;;;19.97;57.86
16595;BME280;8410;52.532;13.336;2023-04-24T10:54:29;99765.09;;;20.33;57.78
16595;BME280;8410;52.532;13.336;2023-04-24T10:57:28;99760.66;;;20.35;57.15
16595;BME280;8410;52.532;13.336;2023-04-24T11:00:19;99763.72;;;20.84;57.65
16595;BME280;8410;52.532;13.336;2023-04-24T11:02:48;99756.69;;;20.86;57.59
16595;BME280;8410;52.532;13.336;2023-04-24T11:05:17;99752.19;;;21.45;55.75
16595;BME280;8410;52.532;13.336;2023-04-24T11:08:10;99748.84;;;21.61;54.82
16595;BME280;8410;52.532;13.336;2023-04-24T11:10:43;99754.06;;;21.61;54.69
16595;BME280;8410;52.532;13.336;2023-04-24T11:13:14;99745.38;;;22.12;53.29
16595;BME280;8410;52.532;13.336;2023-04-24T11:15:43;99755.06;;;21.58;54.46
16595;BME280;8410;52.532;13.336;2023-04-24T11:18:14;99746.22;;;21.78;53.66
16595;BME280;8410;52.532;13.336;2023-04-24T11:20:42;99742.09;;;21.38;54.44
16595;BME280;8410;52.532;13.336;2023-04-24T11:23:12;99739.78;;;21.49;54.09
16595;BME280;8410;52.532;13.336;2023-04-24T11:25:41;99736.13;;;21.53;54.43
16595;BME280;8410;52.532;13.336;2023-04-24T11:28:14;99739.66;;;21.52;53.63
16595;BME280;8410;52.532;13.336;2023-04-24T11:30:43;99746.34;;;20.83;55.24
16595;BME280;8410;52.532;13.336;2023-04-24T11:33:11;99763.53;;;20.49;58.59
16595;BME280;8410;52.532;13.336;2023-04-24T11:35:40;99763.31;;;20.56;62.23
16595;BME280;8410;52.532;13.336;2023-04-24T11:38:09;99772.94;;;19.92;65.11
16595;BME280;8410;52.532;13.336;2023-04-24T11:40:51;99774.06;;;19.87;67.21
16595;BME280;8410;52.532;13.336;2023-04-24T11:43:19;99775.09;;;19.60;68.74
16595;BME280;8410;52.532;13.336;2023-04-24T11:45:49;99768.22;;;19.36;67.58
16595;BME280;8410;52.532;13.336;2023-04-24T11:48:18;99777.81;;;19.57;69.22
16595;BME280;8410;52.532;13.336;2023-04-24T11:50:48;99778.03;;;19.29;72.78
16595;BME280;8410;52.532;13.336;2023-04-24T11:53:18;99780.88;;;18.27;73.19
16595;BME280;8410;52.532;13.336;2023-04-24T11:55:46;99767.16;;;17.69;79.05
16595;BME280;8410;52.532;13.336;2023-04-24T11:58:14;99772.00;;;19.05;75.56
16595;BME280;8410;52.532;13.336;2023-04-24T12:00:41;99762.38;;;19.95;72.63
16595;BME280;8410;52.532;13.336;2023-04-24T12:03:11;99760.53;;;20.38;71.95
16595;BME280;8410;52.532;13.336;2023-04-24T12:05:39;99761.50;;;19.52;71.54
16595;BME280;8410;52.532;13.336;2023-04-24T12:08:07;99744.31;;;20.51;69.77
16595;BME280;8410;52.532;13.336;2023-04-24T12:10:35;99752.81;;;19.74;71.07
16595;BME280;8410;52.532;13.336;2023-04-24T12:13:03;99745.41;;;19.41;69.70
16595;BME280;8410;52.532;13.336;2023-04-24T12:15:31;99744.53;;;19.63;69.06
16595;BME280;8410;52.532;13.336;2023-04-24T12:17:59;99742.81;;;19.61;71.17
16595;BME280;8410;52.532;13.336;2023-04-24T12:20:29;99746.94;;;19.25;71.48
16595;BME280;8410;52.532;13.336;2023-04-24T12:22:58;99740.16;;;20.26;68.90
16595;BME280;8410;52.532;13.336;2023-04-24T12:25:27;99720.00;;;20.48;66.13
16595;BME280;8410;52.532;13.336;2023-04-24T12:28:09;99725.97;;;19.48;67.58
16595;BME280;8410;52.532;13.336;2023-04-24T12:30:40;99715.03;;;20.23;66.53
16595;BME280;8410;52.532;13.336;2023-04-24T12:33:09;99714.19;;;20.81;62.21
16595;BME280;8410;52.532;13.336;2023-04-24T12:35:40;99719.75;;;20.74;59.55
16595;BME280;8410;52.532;13.336;2023-04-24T12:38:09;99721.22;;;20.21;60.38
16595;BME280;8410;52.532;13.336;2023-04-24T12:40:36;99724.13;;;20.54;57.11
16595;BME280;8410;52.532;13.336;2023-04-24T12:43:13;99711.53;;;21.19;55.85
16595;BME280;8410;52.532;13.336;2023-04-24T12:45:41;99720.78;;;20.11;53.00
16595;BME280;8410;52.532;13.336;2023-04-24T12:48:08;99721.47;;;20.56;52.31
16595;BME280;8410;52.532;13.336;2023-04-24T12:50:38;99737.00;;;19.77;51.56
16595;BME280;8410;52.532;13.336;2023-04-24T12:53:05;99739.56;;;19.99;52.06
16595;BME280;8410;52.532;13.336;2023-04-24T12:55:33;99747.34;;;20.00;53.05
16595;BME280;8410;52.532;13.336;2023-04-24T12:58:00;99747.31;;;19.80;54.54
16595;BME280;8410;52.532;13.336;2023-04-24T13:00:29;99732.16;;;20.49;53.93
16595;BME280;8410;52.532;13.336;2023-04-24T13:02:57;99733.31;;;21.01;52.94
16595;BME280;8410;52.532;13.336;2023-04-24T13:05:24;99723.22;;;20.74;52.13
16595;BME280;8410;52.532;13.336;2023-04-24T13:07:53;99736.97;;;20.19;52.67